Time;durP1;ratioP1;P1;durP2;ratioP2;P2;SDS_P1;SDS_P2;PMS_P1;PMS_P2;Temp;Humidity;BMP_temperature;BMP_pressure;BME280_temperature;BME280_humidity;BME280_pressure;Samples;Min_cycle;Max_cycle;Signal;HPM_P1;HPM_P2
2021/11/20 00:01:37;;;;;;;7.37;4.10;;;12.40;99.90;;;;;;4921788;29;20285;-76
2021/11/20 00:04:06;;;;;;;9.73;4.77;;;12.40;99.90;;;;;;4906265;29;20363;-76
2021/11/20 00:06:37;;;;;;;8.30;3.30;;;12.40;99.90;;;;;;4905973;29;20210;-77
2021/11/20 00:09:05;;;;;;;6.80;3.60;;;12.40;99.90;;;;;;4905809;29;20249;-78
2021/11/20 00:11:35;;;;;;;7.37;3.30;;;12.40;99.90;;;;;;4918114;29;20230;-77
2021/11/20 00:14:02;;;;;;;6.43;3.43;;;12.40;99.90;;;;;;4906352;29;20342;-78
2021/11/20 00:16:30;;;;;;;9.40;3.60;;;12.40;99.90;;;;;;4905727;29;20234;-78
2021/11/20 00:18:57;;;;;;;5.90;3.20;;;12.40;99.90;;;;;;4906344;29;20211;-77
2021/11/20 00:21:27;;;;;;;4.63;3.47;;;12.40;99.90;;;;;;4906012;29;20238;-77
2021/11/20 00:23:58;;;;;;;8.73;3.90;;;12.40;99.90;;;;;;4905207;29;20290;-77
2021/11/20 00:26:31;;;;;;;8.63;4.60;;;12.40;99.90;;;;;;4923720;29;20217;-78
2021/11/20 00:29:26;;;;;;;6.67;4.40;;;12.40;99.90;;;;;;4924200;29;20213;-78
2021/11/20 00:31:56;;;;;;;17.10;4.13;;;12.40;99.90;;;;;;4924996;29;20218;-79
2021/11/20 00:34:26;;;;;;;6.67;3.83;;;12.40;99.90;;;;;;4923658;29;20213;-76
2021/11/20 00:36:54;;;;;;;6.00;3.50;;;12.30;99.90;;;;;;4923441;29;20194;-78
2021/11/20 00:39:24;;;;;;;4.80;3.70;;;12.30;99.90;;;;;;4924241;29;20296;-77
2021/11/20 00:41:51;;;;;;;8.60;4.10;;;12.30;99.90;;;;;;4918940;29;20210;-76
2021/11/20 00:44:19;;;;;;;10.03;4.87;;;12.30;99.90;;;;;;4905677;29;20206;-77
2021/11/20 00:46:48;;;;;;;9.67;4.33;;;12.30;99.90;;;;;;4905877;29;20549;-78
2021/11/20 00:49:15;;;;;;;4.70;4.20;;;12.30;99.90;;;;;;4905421;29;20651;-77
2021/11/20 00:51:42;;;;;;;4.97;4.27;;;12.30;99.90;;;;;;4905172;29;20234;-77
2021/11/20 00:54:09;;;;;;;5.10;4.10;;;12.30;99.90;;;;;;4905416;29;20206;-77
2021/11/20 00:56:38;;;;;;;9.77;4.27;;;12.30;99.90;;;;;;4905552;29;20559;-77
2021/11/20 00:59:06;;;;;;;8.30;4.20;;;12.30;99.90;;;;;;4904903;29;20206;-77
2021/11/20 01:01:38;;;;;;;7.43;4.50;;;12.30;99.90;;;;;;4905425;29;20559;-77
2021/11/20 01:04:06;;;;;;;7.63;4.03;;;12.20;99.90;;;;;;4904672;29;20203;-76
2021/11/20 01:06:34;;;;;;;5.03;3.77;;;12.30;99.90;;;;;;4905238;29;20693;-78
2021/11/20 01:09:02;;;;;;;3.47;2.90;;;12.20;99.90;;;;;;4905214;29;20214;-78
2021/11/20 01:11:35;;;;;;;4.77;3.33;;;12.20;99.90;;;;;;4918497;29;20226;-77
2021/11/20 01:14:07;;;;;;;5.73;4.13;;;12.20;99.90;;;;;;4923815;29;20206;-77
2021/11/20 01:16:35;;;;;;;7.23;4.37;;;12.10;99.90;;;;;;4914426;29;20238;-76
2021/11/20 01:19:04;;;;;;;7.57;4.50;;;12.10;99.90;;;;;;4919035;29;20213;-77
2021/11/20 01:21:33;;;;;;;7.87;4.70;;;12.10;99.90;;;;;;4923599;29;20323;-79
2021/11/20 01:24:01;;;;;;;6.40;3.77;;;12.10;99.90;;;;;;4923209;29;20214;-77
2021/11/20 01:26:27;;;;;;;6.90;3.90;;;12.10;99.90;;;;;;4917615;29;20225;-77
2021/11/20 01:28:56;;;;;;;5.83;4.30;;;12.20;99.90;;;;;;4923885;29;20205;-77
2021/11/20 01:31:27;;;;;;;5.73;4.30;;;12.20;99.90;;;;;;4923967;29;20258;-77
2021/11/20 01:33:54;;;;;;;7.87;4.53;;;12.20;99.90;;;;;;4922794;29;20208;-77
2021/11/20 01:36:23;;;;;;;5.23;3.97;;;12.20;99.90;;;;;;4923037;29;20632;-76
2021/11/20 01:38:51;;;;;;;6.87;4.20;;;12.20;99.90;;;;;;4923313;29;20194;-77
2021/11/20 01:41:19;;;;;;;5.80;5.00;;;12.20;99.90;;;;;;4923258;29;20254;-77
2021/11/20 01:43:49;;;;;;;8.13;4.40;;;12.20;99.90;;;;;;4914691;29;20697;-77
2021/11/20 01:46:18;;;;;;;7.93;4.47;;;12.20;99.90;;;;;;4903815;29;20199;-77
2021/11/20 01:48:59;;;;;;;5.23;3.83;;;12.20;99.90;;;;;;4922349;29;20218;-77
2021/11/20 01:51:29;;;;;;;4.07;3.53;;;12.20;99.90;;;;;;4922203;29;20284;-76
2021/11/20 01:54:11;;;;;;;5.63;4.10;;;12.20;99.90;;;;;;4922767;29;20638;-77
2021/11/20 01:56:51;;;;;;;7.67;4.23;;;12.20;99.90;;;;;;4922152;29;20221;-75
2021/11/20 01:59:23;;;;;;;6.67;4.10;;;12.20;99.90;;;;;;4923637;29;20230;-79
2021/11/20 02:01:53;;;;;;;6.23;3.90;;;12.20;99.90;;;;;;4922449;29;20198;-77
2021/11/20 02:04:28;;;;;;;8.17;3.70;;;12.10;99.90;;;;;;4922040;29;20296;-75
2021/11/20 02:07:05;;;;;;;4.97;3.27;;;12.20;99.90;;;;;;4923534;29;20217;-76
2021/11/20 02:09:36;;;;;;;5.77;3.20;;;12.30;99.90;;;;;;4922551;29;20205;-77
2021/11/20 02:12:06;;;;;;;5.57;3.30;;;12.30;99.90;;;;;;4922355;29;20646;-75
2021/11/20 02:14:34;;;;;;;5.13;3.40;;;12.30;99.90;;;;;;4923221;29;20199;-76
2021/11/20 02:17:04;;;;;;;4.27;3.37;;;12.40;99.90;;;;;;4923010;29;20238;-75
2021/11/20 02:19:36;;;;;;;5.93;3.43;;;12.40;99.90;;;;;;4923438;29;20205;-76
2021/11/20 02:22:07;;;;;;;3.77;2.73;;;12.40;99.90;;;;;;4915731;29;20230;-75
2021/11/20 02:24:34;;;;;;;6.33;2.70;;;12.40;99.90;;;;;;4904492;29;20217;-76
2021/11/20 02:27:04;;;;;;;6.70;3.20;;;12.40;99.90;;;;;;4922196;29;20349;-77
2021/11/20 02:29:31;;;;;;;3.27;2.97;;;12.40;99.90;;;;;;4922457;29;20202;-76
2021/11/20 02:32:02;;;;;;;7.60;2.83;;;12.50;99.90;;;;;;4912610;29;20257;-76
2021/11/20 02:34:32;;;;;;;4.80;2.80;;;12.50;99.90;;;;;;4903771;29;20210;-75
2021/11/20 02:36:58;;;;;;;7.03;4.00;;;12.40;99.90;;;;;;4903654;29;20330;-76
2021/11/20 02:39:28;;;;;;;4.03;2.93;;;12.40;99.90;;;;;;4904545;29;20206;-75
2021/11/20 02:41:58;;;;;;;4.07;2.83;;;12.40;99.90;;;;;;4904357;29;20415;-76
2021/11/20 02:44:28;;;;;;;3.57;2.80;;;12.40;99.90;;;;;;4903336;29;20210;-75
2021/11/20 02:46:57;;;;;;;3.17;2.60;;;12.50;99.90;;;;;;4905433;29;20263;-76
2021/11/20 02:49:25;;;;;;;6.93;2.63;;;12.40;99.90;;;;;;4906944;29;20206;-77
2021/11/20 02:51:54;;;;;;;4.73;2.60;;;12.50;99.90;;;;;;4932412;28;20229;-76
2021/11/20 02:54:23;;;;;;;7.60;2.87;;;12.50;99.90;;;;;;4967721;28;20211;-77
2021/11/20 02:56:52;;;;;;;4.33;2.30;;;12.50;99.90;;;;;;4967190;28;20196;-76
2021/11/20 02:59:19;;;;;;;4.97;2.60;;;12.60;99.90;;;;;;4968407;28;20217;-76
2021/11/20 03:01:48;;;;;;;3.87;2.53;;;12.60;99.90;;;;;;4967406;28;20204;-75
2021/11/20 03:04:17;;;;;;;4.80;2.57;;;12.50;99.90;;;;;;4967103;28;20211;-77
2021/11/20 03:06:47;;;;;;;4.20;2.17;;;12.50;99.90;;;;;;4967726;28;20259;-77
2021/11/20 03:09:14;;;;;;;4.03;1.93;;;12.50;99.90;;;;;;4968283;28;20216;-77
2021/11/20 03:11:42;;;;;;;3.90;2.10;;;12.40;99.90;;;;;;4966722;28;20208;-76
2021/11/20 03:14:14;;;;;;;4.47;2.13;;;12.40;99.90;;;;;;4967216;28;20275;-75
2021/11/20 03:16:44;;;;;;;5.47;2.77;;;12.40;99.90;;;;;;4976598;28;20326;-76
2021/11/20 03:19:11;;;;;;;6.57;2.77;;;12.30;99.90;;;;;;4986706;28;20204;-75
2021/11/20 03:21:41;;;;;;;5.30;2.87;;;12.30;99.90;;;;;;4970509;28;20244;-77
2021/11/20 03:24:11;;;;;;;5.57;2.90;;;12.30;99.90;;;;;;4967156;28;20212;-77
2021/11/20 03:26:38;;;;;;;6.47;3.13;;;12.30;99.90;;;;;;4969624;28;20679;-76
2021/11/20 03:29:05;;;;;;;3.90;3.10;;;12.20;99.90;;;;;;4967004;28;21071;-77
2021/11/20 03:31:32;;;;;;;6.80;3.47;;;12.30;99.90;;;;;;4966419;28;20204;-77
2021/11/20 03:33:59;;;;;;;6.10;2.97;;;12.30;99.90;;;;;;4967044;28;20234;-75
2021/11/20 03:36:25;;;;;;;5.73;2.73;;;12.30;99.90;;;;;;4967460;28;20293;-75
2021/11/20 03:38:52;;;;;;;4.80;2.20;;;12.40;99.90;;;;;;4966977;28;20209;-76
2021/11/20 03:41:20;;;;;;;3.73;1.93;;;12.40;99.90;;;;;;4966277;28;20219;-75
2021/11/20 03:43:47;;;;;;;4.27;1.80;;;12.40;99.90;;;;;;4966716;28;20964;-77
2021/11/20 03:46:14;;;;;;;5.23;2.23;;;12.40;99.90;;;;;;4966908;28;20212;-75
2021/11/20 03:48:41;;;;;;;4.90;2.00;;;12.40;99.90;;;;;;4966646;28;20208;-76
2021/11/20 03:51:08;;;;;;;4.17;2.10;;;12.40;99.90;;;;;;4966346;28;20609;-75
2021/11/20 03:53:35;;;;;;;5.57;2.73;;;12.40;99.90;;;;;;4965365;28;20539;-77
2021/11/20 03:56:03;;;;;;;4.87;2.53;;;12.40;99.90;;;;;;4966391;28;20898;-75
2021/11/20 03:58:31;;;;;;;3.93;2.07;;;12.40;99.90;;;;;;4965487;28;20702;-76
2021/11/20 04:01:01;;;;;;;3.23;1.83;;;12.40;99.90;;;;;;4965769;28;20213;-77
2021/11/20 04:03:28;;;;;;;3.23;1.90;;;12.40;99.90;;;;;;4966501;28;20223;-77
2021/11/20 04:05:58;;;;;;;4.47;2.50;;;12.30;99.90;;;;;;4966438;28;20263;-77
2021/11/20 04:08:26;;;;;;;3.60;2.63;;;12.30;99.90;;;;;;4965585;28;20221;-78
2021/11/20 04:10:55;;;;;;;5.07;3.27;;;12.30;99.90;;;;;;4969976;28;20319;-77
2021/11/20 04:13:22;;;;;;;4.47;2.40;;;12.30;99.90;;;;;;4985226;28;20228;-77
2021/11/20 04:15:51;;;;;;;3.83;2.43;;;12.20;99.90;;;;;;4984738;28;20224;-75
2021/11/20 04:18:19;;;;;;;3.37;2.50;;;12.30;99.90;;;;;;4973174;28;20220;-76
2021/11/20 04:20:46;;;;;;;3.80;3.07;;;12.20;99.90;;;;;;4966077;28;20208;-76
2021/11/20 04:23:13;;;;;;;6.07;3.27;;;12.20;99.90;;;;;;4966276;28;20243;-76
2021/11/20 04:25:40;;;;;;;4.03;3.63;;;12.20;99.90;;;;;;4973411;28;20214;-79
2021/11/20 04:28:07;;;;;;;7.43;4.67;;;12.20;99.90;;;;;;4972591;28;20246;-77
2021/11/20 04:30:34;;;;;;;8.20;4.70;;;12.20;99.90;;;;;;4965498;28;20212;-76
2021/11/20 04:33:03;;;;;;;10.10;5.70;;;12.10;99.90;;;;;;4965407;28;20315;-76
2021/11/20 04:35:29;;;;;;;9.33;6.40;;;12.10;99.90;;;;;;4965943;28;20309;-77
2021/11/20 04:37:57;;;;;;;9.27;5.43;;;12.10;99.90;;;;;;4965828;28;20205;-77
2021/11/20 04:40:25;;;;;;;7.87;5.33;;;12.10;99.90;;;;;;4966054;28;20201;-78
2021/11/20 04:42:52;;;;;;;8.37;5.57;;;12.10;99.90;;;;;;4966057;28;20212;-77
2021/11/20 04:45:21;;;;;;;8.50;4.93;;;12.10;99.90;;;;;;4965054;28;20347;-77
2021/11/20 04:47:48;;;;;;;7.00;4.83;;;12.10;99.90;;;;;;4965534;28;20205;-75
2021/11/20 04:50:18;;;;;;;7.13;4.20;;;12.00;99.90;;;;;;4964419;28;20205;-77
2021/11/20 04:52:45;;;;;;;8.00;4.73;;;12.00;99.90;;;;;;4965710;28;20232;-76
2021/11/20 04:55:15;;;;;;;7.23;4.27;;;12.10;99.90;;;;;;4965551;28;20209;-77
2021/11/20 04:57:42;;;;;;;5.27;4.70;;;12.00;99.90;;;;;;4965274;28;20625;-77
2021/11/20 05:00:13;;;;;;;6.40;4.70;;;12.00;99.90;;;;;;4982798;28;20215;-76
2021/11/20 05:02:40;;;;;;;6.57;4.20;;;12.00;99.90;;;;;;4983794;28;20204;-75
2021/11/20 05:05:08;;;;;;;5.03;4.33;;;12.10;99.90;;;;;;4983773;28;20208;-77
2021/11/20 05:07:37;;;;;;;6.20;4.60;;;12.10;99.90;;;;;;4984139;28;20211;-75
2021/11/20 05:10:05;;;;;;;4.37;3.23;;;12.20;99.90;;;;;;4984083;28;20212;-76
2021/11/20 05:12:32;;;;;;;3.83;3.43;;;12.20;99.90;;;;;;4972224;28;20219;-76
2021/11/20 05:14:59;;;;;;;3.50;3.20;;;12.20;99.90;;;;;;4965351;28;20207;-78
2021/11/20 05:17:26;;;;;;;4.30;3.90;;;12.20;99.90;;;;;;4964445;28;20874;-77
2021/11/20 05:19:53;;;;;;;5.20;4.20;;;12.30;99.90;;;;;;4965510;28;20212;-75
2021/11/20 05:22:19;;;;;;;5.07;4.10;;;12.20;99.90;;;;;;4964516;28;20248;-77
2021/11/20 05:24:47;;;;;;;5.23;3.67;;;12.20;99.90;;;;;;4964933;28;20205;-76
2021/11/20 05:27:14;;;;;;;3.37;3.00;;;12.30;99.90;;;;;;4977214;28;20204;-77
2021/11/20 05:29:49;;;;;;;4.03;3.30;;;12.40;99.90;;;;;;4964271;28;20215;-76
2021/11/20 05:32:16;;;;;;;3.20;2.87;;;12.30;99.90;;;;;;4963933;28;20246;-77
2021/11/20 05:34:43;;;;;;;3.60;3.30;;;12.30;99.90;;;;;;4964356;28;20235;-77
2021/11/20 05:37:09;;;;;;;3.13;2.80;;;12.30;99.90;;;;;;4965125;28;20219;-78
2021/11/20 05:39:36;;;;;;;2.63;2.43;;;12.30;99.90;;;;;;4964163;28;20219;-76
2021/11/20 05:42:06;;;;;;;4.60;3.30;;;12.20;99.90;;;;;;4964874;28;20204;-78
2021/11/20 05:44:33;;;;;;;3.13;2.83;;;12.20;99.90;;;;;;4964318;28;20197;-77
2021/11/20 05:47:00;;;;;;;5.73;4.80;;;12.10;99.90;;;;;;4964226;28;20216;-77
2021/11/20 05:49:27;;;;;;;6.20;4.20;;;12.10;99.90;;;;;;4964529;28;20212;-77
2021/11/20 05:51:55;;;;;;;6.23;4.13;;;12.00;99.90;;;;;;4964917;28;20287;-77
2021/11/20 05:54:22;;;;;;;4.60;3.03;;;12.00;99.90;;;;;;4964068;28;20357;-76
2021/11/20 05:56:49;;;;;;;4.57;3.50;;;12.00;99.90;;;;;;4965159;28;20220;-78
2021/11/20 05:59:17;;;;;;;6.70;3.43;;;12.00;99.90;;;;;;4964099;28;20216;-77
2021/11/20 06:01:45;;;;;;;3.20;2.90;;;12.00;99.90;;;;;;4964549;28;20216;-77
2021/11/20 06:04:12;;;;;;;4.73;3.37;;;12.00;99.90;;;;;;4964553;28;20208;-78
2021/11/20 06:06:39;;;;;;;3.17;2.83;;;12.00;99.90;;;;;;4963680;28;20204;-79
2021/11/20 06:09:06;;;;;;;3.47;3.17;;;12.00;99.90;;;;;;4964240;28;20583;-77
2021/11/20 06:11:33;;;;;;;3.60;3.30;;;12.00;99.90;;;;;;4964829;28;20640;-77
2021/11/20 06:14:00;;;;;;;3.93;3.57;;;12.00;99.90;;;;;;4964069;28;20228;-78
2021/11/20 06:16:29;;;;;;;4.63;3.53;;;12.00;99.90;;;;;;4966432;28;20230;-78
2021/11/20 06:18:56;;;;;;;3.73;3.43;;;11.90;99.90;;;;;;4983832;28;20216;-75
2021/11/20 06:21:23;;;;;;;4.60;4.20;;;11.90;99.90;;;;;;4984151;28;20258;-77
2021/11/20 06:23:50;;;;;;;4.13;3.73;;;12.00;99.90;;;;;;4985360;28;20495;-77
2021/11/20 06:26:17;;;;;;;6.20;4.90;;;12.00;99.90;;;;;;4980551;28;20539;-77
2021/11/20 06:28:45;;;;;;;6.20;5.17;;;12.00;99.90;;;;;;4987348;28;20318;-77
2021/11/20 06:31:13;;;;;;;8.40;5.57;;;12.00;99.90;;;;;;4987910;28;20208;-76
2021/11/20 06:33:43;;;;;;;8.90;6.53;;;11.90;99.90;;;;;;4982860;28;20442;-77
2021/11/20 06:36:10;;;;;;;7.20;6.20;;;12.00;99.90;;;;;;4967712;28;20213;-77
2021/11/20 06:38:39;;;;;;;7.83;6.00;;;11.90;99.90;;;;;;4967921;28;20201;-77
2021/11/20 06:41:07;;;;;;;6.83;6.03;;;11.90;99.90;;;;;;4968151;28;20344;-77
2021/11/20 06:43:34;;;;;;;5.93;5.33;;;11.90;99.90;;;;;;4985944;28;20667;-77
2021/11/20 06:46:04;;;;;;;5.80;5.20;;;11.90;99.90;;;;;;4987754;28;20204;-75
2021/11/20 06:48:31;;;;;;;7.00;5.37;;;11.80;99.90;;;;;;4986566;28;20196;-77
2021/11/20 06:51:00;;;;;;;8.37;6.33;;;11.90;99.90;;;;;;4976260;28;20232;-75
2021/11/20 06:53:28;;;;;;;6.83;5.50;;;11.90;99.90;;;;;;4966844;28;20221;-76
2021/11/20 06:55:56;;;;;;;6.60;4.63;;;12.00;99.90;;;;;;4966855;28;20211;-75
2021/11/20 07:01:08;;;;;;;6.03;3.80;;;12.10;99.90;;;;;;4966416;28;20204;-74
2021/11/20 07:03:38;;;;;;;5.63;4.40;;;12.10;99.90;;;;;;4966852;28;20199;-75
2021/11/20 07:06:12;;;;;;;6.67;5.83;;;12.10;99.90;;;;;;4967455;28;20540;-75
2021/11/20 07:08:40;;;;;;;7.00;4.80;;;12.10;99.90;;;;;;4967191;28;20204;-77
2021/11/20 07:11:07;;;;;;;7.27;5.33;;;12.10;99.90;;;;;;4981581;28;20632;-77
2021/11/20 07:13:36;;;;;;;6.20;4.60;;;12.10;99.90;;;;;;4983404;28;20224;-76
2021/11/20 07:16:05;;;;;;;6.57;4.33;;;12.10;99.90;;;;;;4966783;28;20231;-75
2021/11/20 07:18:32;;;;;;;6.00;4.90;;;12.10;99.90;;;;;;4966611;28;20212;-75
2021/11/20 07:20:59;;;;;;;7.70;5.50;;;12.00;99.90;;;;;;4967914;28;20201;-75
2021/11/20 07:23:28;;;;;;;9.37;5.30;;;12.00;99.90;;;;;;4966711;28;20241;-76
2021/11/20 07:25:56;;;;;;;7.70;5.57;;;12.00;99.90;;;;;;4975946;28;20291;-75
2021/11/20 07:28:22;;;;;;;7.63;5.40;;;12.00;99.90;;;;;;4986193;28;20220;-76
2021/11/20 07:30:49;;;;;;;5.33;4.70;;;12.00;99.90;;;;;;4986481;28;20204;-76
2021/11/20 07:33:16;;;;;;;4.57;4.10;;;12.00;99.90;;;;;;4966668;28;20216;-77
2021/11/20 07:35:45;;;;;;;4.93;3.97;;;12.00;99.90;;;;;;4967732;28;20216;-77
2021/11/20 07:38:15;;;;;;;6.27;4.03;;;12.10;99.90;;;;;;4966875;28;20216;-76
2021/11/20 07:40:44;;;;;;;4.43;4.03;;;12.10;99.90;;;;;;4966406;28;20632;-77
2021/11/20 07:43:11;;;;;;;5.80;4.10;;;12.20;99.90;;;;;;4967115;28;20212;-76
2021/11/20 07:45:38;;;;;;;6.20;3.80;;;12.20;99.90;;;;;;4966828;28;20204;-77
2021/11/20 07:48:06;;;;;;;5.87;4.93;;;12.20;99.90;;;;;;4966710;28;20208;-78
2021/11/20 07:50:33;;;;;;;6.50;5.37;;;12.20;99.90;;;;;;4966682;28;20209;-76
2021/11/20 07:53:00;;;;;;;7.27;5.73;;;12.20;99.90;;;;;;4966592;28;20305;-74
2021/11/20 07:56:09;;;;;;;8.07;6.57;;;12.10;99.90;;;;;;4969303;28;20236;-77
2021/11/20 07:58:39;;;;;;;9.73;8.23;;;12.10;99.90;;;;;;4984539;28;20383;-77
2021/11/20 08:01:06;;;;;;;9.10;7.30;;;12.10;99.90;;;;;;4979604;28;20267;-77
2021/11/20 08:03:33;;;;;;;8.93;7.30;;;12.10;99.90;;;;;;4965591;28;20197;-77
2021/11/20 08:06:00;;;;;;;8.67;7.53;;;12.00;99.90;;;;;;4965253;28;20208;-76
2021/11/20 08:08:27;;;;;;;7.57;5.57;;;12.10;99.90;;;;;;4965891;28;20205;-76
2021/11/20 08:10:54;;;;;;;5.93;5.00;;;12.10;99.90;;;;;;4966239;28;20200;-77
2021/11/20 08:13:22;;;;;;;7.27;6.10;;;12.10;99.90;;;;;;4959534;28;20200;-76
2021/11/20 08:15:51;;;;;;;7.43;6.73;;;12.20;99.90;;;;;;4983934;28;20240;-76
2021/11/20 08:18:17;;;;;;;9.23;7.20;;;12.10;99.90;;;;;;4985224;28;20208;-74
2021/11/20 08:20:46;;;;;;;11.57;8.87;;;12.10;99.90;;;;;;4985106;28;20489;-75
2021/11/20 08:23:14;;;;;;;11.23;8.57;;;12.10;99.90;;;;;;4984729;28;20236;-75
2021/11/20 08:25:43;;;;;;;10.20;8.27;;;12.10;99.90;;;;;;4984891;28;20215;-75
2021/11/20 08:28:13;;;;;;;14.23;9.20;;;12.10;99.90;;;;;;4984748;28;20212;-76
2021/11/20 08:30:40;;;;;;;9.77;8.73;;;12.10;99.90;;;;;;4977878;28;20259;-75
2021/11/20 08:33:08;;;;;;;13.90;10.83;;;12.20;99.90;;;;;;4966099;28;20208;-75
2021/11/20 08:35:37;;;;;;;10.70;9.60;;;12.20;99.90;;;;;;4964751;28;20243;-77
2021/11/20 08:38:06;;;;;;;12.03;9.93;;;12.20;99.90;;;;;;4965968;28;20264;-77
2021/11/20 08:40:33;;;;;;;12.60;10.47;;;12.20;99.90;;;;;;4965457;28;20204;-76
2021/11/20 08:43:01;;;;;;;11.20;10.00;;;12.20;99.90;;;;;;4965468;28;20216;-76
2021/11/20 08:45:31;;;;;;;11.37;9.80;;;12.30;99.90;;;;;;4965343;28;20207;-76
2021/11/20 08:47:58;;;;;;;12.37;9.80;;;12.30;99.90;;;;;;4965780;28;20209;-75
2021/11/20 08:50:29;;;;;;;12.97;10.27;;;12.20;99.90;;;;;;4965187;28;20567;-75
2021/11/20 08:52:56;;;;;;;12.07;8.97;;;12.20;99.90;;;;;;4965358;28;20197;-76
2021/11/20 08:55:24;;;;;;;14.27;11.73;;;12.20;99.90;;;;;;4965104;28;20934;-76
2021/11/20 08:57:51;;;;;;;13.70;12.30;;;12.20;99.90;;;;;;4965345;28;20221;-76
2021/11/20 09:00:20;;;;;;;12.27;11.07;;;12.20;99.90;;;;;;4964874;28;20213;-76
2021/11/20 09:02:51;;;;;;;13.00;11.10;;;12.30;99.90;;;;;;4964849;28;20216;-75
2021/11/20 09:05:22;;;;;;;12.50;10.40;;;12.30;99.90;;;;;;4964982;28;20201;-76
2021/11/20 09:08:06;;;;;;;10.93;9.83;;;12.40;99.90;;;;;;4965913;28;20225;-79
2021/11/20 09:10:39;;;;;;;12.27;10.50;;;12.40;99.90;;;;;;4964457;28;20197;-76
2021/11/20 09:13:09;;;;;;;11.47;10.20;;;12.40;99.90;;;;;;4965601;28;20196;-77
2021/11/20 09:15:41;;;;;;;17.40;13.10;;;12.30;99.90;;;;;;4964181;28;20998;-77
2021/11/20 09:18:09;;;;;;;17.67;13.13;;;12.30;99.90;;;;;;4964402;28;20216;-76
2021/11/20 09:20:36;;;;;;;18.27;13.83;;;12.30;99.90;;;;;;4964706;28;20621;-77
2021/11/20 09:23:05;;;;;;;13.60;12.20;;;12.30;99.90;;;;;;4964238;28;20267;-78
2021/11/20 09:25:32;;;;;;;13.70;12.27;;;12.30;99.90;;;;;;4968405;28;20208;-77
2021/11/20 09:27:59;;;;;;;12.50;11.00;;;12.30;99.90;;;;;;4964582;28;20342;-75
2021/11/20 09:30:31;;;;;;;11.70;10.13;;;12.30;99.90;;;;;;4974859;28;20218;-76
2021/11/20 09:32:58;;;;;;;14.17;9.77;;;12.40;99.90;;;;;;4984475;28;20228;-77
2021/11/20 09:35:24;;;;;;;11.33;9.20;;;12.40;99.90;;;;;;4982431;28;20654;-77
2021/11/20 09:37:52;;;;;;;12.83;10.07;;;12.40;99.90;;;;;;4964480;28;20205;-76
2021/11/20 09:40:22;;;;;;;13.40;9.57;;;12.40;99.90;;;;;;4977272;28;20208;-77
2021/11/20 09:42:51;;;;;;;11.37;10.17;;;12.50;99.90;;;;;;4983944;28;20196;-75
2021/11/20 09:45:21;;;;;;;10.87;9.53;;;12.50;99.90;;;;;;4977287;28;20204;-77
2021/11/20 09:47:51;;;;;;;13.17;10.83;;;12.40;99.90;;;;;;4965359;28;20204;-78
2021/11/20 09:50:20;;;;;;;11.77;10.57;;;12.50;99.90;;;;;;4964777;28;20204;-76
2021/11/20 09:52:48;;;;;;;12.20;11.00;;;12.40;99.90;;;;;;4964378;28;20197;-76
2021/11/20 09:55:19;;;;;;;13.60;11.97;;;12.50;99.90;;;;;;4983990;28;20242;-75
2021/11/20 09:57:49;;;;;;;14.20;12.60;;;12.50;99.90;;;;;;4983930;28;20211;-76
2021/11/20 10:01:04;;;;;;;16.50;14.70;;;12.40;99.90;;;;;;4982798;28;20224;-76
2021/11/20 10:03:37;;;;;;;16.13;14.40;;;12.40;99.90;;;;;;4918584;28;20227;-74
2021/11/20 10:06:07;;;;;;;17.77;14.93;;;12.40;99.90;;;;;;4963989;28;20660;-74
2021/11/20 10:08:38;;;;;;;21.73;15.17;;;12.50;99.90;;;;;;4964216;28;20578;-75
2021/11/20 10:11:28;;;;;;;18.57;16.60;;;12.40;99.90;;;;;;4964308;28;20226;-74
2021/11/20 10:14:00;;;;;;;20.60;16.37;;;12.40;99.90;;;;;;4963993;28;20200;-75
2021/11/20 10:16:30;;;;;;;18.07;15.90;;;12.40;99.90;;;;;;4964483;28;20577;-77
2021/11/20 10:19:04;;;;;;;21.27;17.23;;;12.40;99.90;;;;;;4964535;28;20212;-76
2021/11/20 10:21:34;;;;;;;20.43;17.47;;;12.40;99.90;;;;;;4963663;28;20248;-77
2021/11/20 10:24:09;;;;;;;24.90;17.50;;;12.40;99.90;;;;;;4964395;28;20200;-76
2021/11/20 10:27:12;;;;;;;22.90;18.30;;;12.40;99.90;;;;;;4978533;28;20203;-77
2021/11/20 10:30:00;;;;;;;22.77;16.33;;;12.40;99.90;;;;;;4970251;28;20208;-75
2021/11/20 10:32:34;;;;;;;22.80;19.27;;;12.40;99.90;;;;;;4982707;28;20339;-77
2021/11/20 10:35:15;;;;;;;23.07;18.57;;;12.40;99.90;;;;;;4963811;28;20235;-77
2021/11/20 10:37:46;;;;;;;24.07;20.70;;;12.40;99.90;;;;;;4964945;28;21011;-77
2021/11/20 10:40:20;;;;;;;26.80;20.00;;;12.40;99.90;;;;;;4964118;28;20228;-76
2021/11/20 10:43:01;;;;;;;28.67;19.57;;;12.40;99.90;;;;;;4964639;28;20203;-77
2021/11/20 10:45:43;;;;;;;26.43;20.20;;;12.40;99.90;;;;;;4963731;28;20196;-77
2021/11/20 10:48:25;;;;;;;24.67;19.40;;;12.40;99.90;;;;;;4963972;28;20520;-77
2021/11/20 10:51:10;;;;;;;24.37;18.50;;;12.40;99.90;;;;;;4964769;28;20213;-78
2021/11/20 10:54:20;;;;;;;27.33;19.40;;;12.40;99.90;;;;;;4963235;28;20780;-78
2021/11/20 10:57:02;;;;;;;24.77;18.43;;;12.40;99.90;;;;;;4963696;28;20359;-77
2021/11/20 10:59:51;;;;;;;23.90;18.33;;;12.40;99.90;;;;;;4964319;28;20204;-76
2021/11/20 11:03:13;;;;;;;24.47;20.20;;;12.40;99.90;;;;;;4963822;28;20556;-77
2021/11/20 11:06:18;;;;;;;23.73;18.43;;;12.50;99.90;;;;;;4867273;29;20284;-75
2021/11/20 11:08:49;;;;;;;23.73;17.93;;;12.50;99.90;;;;;;4966296;28;20624;-78
2021/11/20 11:11:22;;;;;;;24.13;20.27;;;12.50;99.90;;;;;;4967772;28;20297;-77
2021/11/20 11:14:08;;;;;;;24.87;19.97;;;12.50;99.90;;;;;;4968063;28;20213;-77
2021/11/20 11:16:37;;;;;;;27.53;21.37;;;12.50;99.90;;;;;;4966722;28;20233;-76
2021/11/20 11:19:12;;;;;;;27.60;22.03;;;12.50;99.90;;;;;;4967010;28;20205;-74
2021/11/20 11:21:56;;;;;;;32.73;24.40;;;12.50;99.90;;;;;;4967691;28;20247;-75
2021/11/20 11:24:55;;;;;;;33.07;26.20;;;12.50;99.90;;;;;;4967264;28;20212;-74
2021/11/20 11:27:27;;;;;;;32.83;25.20;;;12.40;99.90;;;;;;4967322;28;20200;-76
2021/11/20 11:30:09;;;;;;;30.53;23.90;;;12.40;99.90;;;;;;4966853;28;20321;-75
2021/11/20 11:32:38;;;;;;;27.33;21.80;;;12.50;99.90;;;;;;4966645;28;20207;-77
2021/11/20 11:35:16;;;;;;;31.57;24.50;;;12.50;99.90;;;;;;4983360;28;20220;-77
2021/11/20 11:37:53;;;;;;;30.97;24.77;;;12.40;99.90;;;;;;4981431;28;20219;-77
2021/11/20 11:40:35;;;;;;;31.63;23.70;;;12.40;99.90;;;;;;4967384;28;20295;-77
2021/11/20 11:43:09;;;;;;;29.70;19.53;;;12.40;99.90;;;;;;4966897;28;20197;-77
2021/11/20 11:46:01;;;;;;;26.43;18.60;;;12.50;99.90;;;;;;4966005;28;20515;-77
2021/11/20 11:49:07;;;;;;;29.40;18.83;;;12.50;99.90;;;;;;4986157;28;20204;-77
2021/11/20 11:51:41;;;;;;;32.33;20.93;;;12.50;99.90;;;;;;4950596;28;20701;-77
2021/11/20 11:54:23;;;;;;;28.97;19.70;;;12.40;99.90;;;;;;4983451;28;20216;-76
2021/11/20 11:57:04;;;;;;;27.93;18.53;;;12.40;99.90;;;;;;4966886;28;20291;-75
2021/11/20 11:59:58;;;;;;;28.93;19.13;;;12.40;99.90;;;;;;4966113;28;20576;-76
2021/11/20 12:02:31;;;;;;;26.53;18.13;;;12.30;99.90;;;;;;4966188;28;20212;-75
2021/11/20 12:05:18;;;;;;;28.77;19.87;;;12.20;99.90;;;;;;4966695;28;20893;-77
2021/11/20 12:08:06;;;;;;;27.73;18.63;;;12.20;99.90;;;;;;4966620;28;20208;-79
2021/11/20 12:10:46;;;;;;;32.17;20.10;;;12.20;99.90;;;;;;4966239;28;20715;-77
2021/11/20 12:13:13;;;;;;;24.93;18.40;;;12.20;99.90;;;;;;4966282;28;20200;-79
2021/11/20 12:15:46;;;;;;;26.87;20.70;;;12.10;99.90;;;;;;4966222;28;20240;-78
2021/11/20 12:18:37;;;;;;;29.17;19.33;;;12.10;99.90;;;;;;4966153;28;20211;-78
2021/11/20 12:21:16;;;;;;;28.87;19.00;;;12.10;99.90;;;;;;4964837;28;20593;-77
2021/11/20 12:23:49;;;;;;;26.27;17.47;;;12.10;99.90;;;;;;4966970;28;20207;-78
2021/11/20 12:26:21;;;;;;;28.30;18.97;;;12.10;99.90;;;;;;4978557;28;20507;-76
2021/11/20 12:29:11;;;;;;;26.73;17.33;;;12.00;99.90;;;;;;4985338;28;20208;-77
2021/11/20 12:32:06;;;;;;;27.00;18.07;;;12.00;99.90;;;;;;4985932;28;20591;-76
2021/11/20 12:34:51;;;;;;;24.57;18.10;;;12.00;99.90;;;;;;4984580;28;20200;-79
2021/11/20 12:37:56;;;;;;;27.30;17.70;;;12.00;99.90;;;;;;4984839;28;20200;-79
2021/11/20 12:40:58;;;;;;;22.90;16.87;;;12.00;99.90;;;;;;4924632;29;20518;-76
2021/11/20 12:44:12;;;;;;;26.43;16.27;;;12.00;99.90;;;;;;4966402;28;20208;-78
2021/11/20 12:46:57;;;;;;;25.10;15.97;;;11.90;99.90;;;;;;4952359;28;20204;-77
2021/11/20 12:49:33;;;;;;;25.50;16.97;;;11.90;99.90;;;;;;4964993;28;20216;-78
2021/11/20 12:52:21;;;;;;;24.17;17.07;;;11.90;99.90;;;;;;4965322;28;20211;-77
2021/11/20 12:54:57;;;;;;;20.63;16.33;;;11.90;99.90;;;;;;4965624;28;20239;-78
2021/11/20 12:57:29;;;;;;;28.10;18.20;;;11.80;99.90;;;;;;4965738;28;20935;-77
2021/11/20 13:00:01;;;;;;;29.53;19.10;;;11.80;99.90;;;;;;4965739;28;20201;-77
2021/11/20 13:02:37;;;;;;;29.27;19.70;;;11.80;99.90;;;;;;4964768;28;20711;-78
2021/11/20 13:05:13;;;;;;;28.23;18.77;;;11.80;99.90;;;;;;4965368;28;20553;-77
2021/11/20 13:07:52;;;;;;;32.13;19.67;;;11.80;99.90;;;;;;4965025;28;20200;-79